createdAt,value
2017-08-30T00:02:27.187Z,69.10
2017-08-30T00:04:54.963Z,68.90
2017-08-30T00:07:22.576Z,68.90
2017-08-30T00:09:50.249Z,69.10
2017-08-30T00:12:17.916Z,69.80
2017-08-30T00:14:45.575Z,69.90
2017-08-30T00:17:13.235Z,69.70
2017-08-30T00:19:40.905Z,71.00
2017-08-30T00:22:08.559Z,70.70
2017-08-30T00:24:47.970Z,69.00
2017-08-30T00:27:15.660Z,68.30
2017-08-30T00:29:43.363Z,70.60
2017-08-30T00:32:10.983Z,71.50
2017-08-30T00:34:38.840Z,71.90
2017-08-30T00:37:06.488Z,72.30
2017-08-30T00:39:34.140Z,71.20
2017-08-30T00:42:01.846Z,70.70
2017-08-30T00:44:29.491Z,69.70
2017-08-30T00:46:57.182Z,70.00
2017-08-30T00:49:24.807Z,70.10
2017-08-30T00:51:52.507Z,70.00
2017-08-30T00:54:20.227Z,70.30
2017-08-30T00:56:47.924Z,70.20
2017-08-30T00:59:15.687Z,70.10
2017-08-30T01:01:43.414Z,70.00
2017-08-30T01:04:11.051Z,69.90
2017-08-30T01:06:39.583Z,70.70
2017-08-30T01:09:07.319Z,70.80
2017-08-30T01:11:35.205Z,70.40
2017-08-30T01:14:02.882Z,70.20
2017-08-30T01:16:30.625Z,70.20
2017-08-30T01:18:58.272Z,70.20
2017-08-30T01:21:25.929Z,70.40
2017-08-30T01:23:53.464Z,70.50
2017-08-30T01:26:21.125Z,70.80
2017-08-30T01:28:48.746Z,71.20
2017-08-30T01:31:16.347Z,71.30
2017-08-30T01:33:43.928Z,71.00
2017-08-30T01:36:11.558Z,70.90
2017-08-30T01:38:39.110Z,70.60
2017-08-30T01:41:06.753Z,70.60
2017-08-30T01:43:34.335Z,70.80
2017-08-30T01:46:02.006Z,71.10
2017-08-30T01:48:29.618Z,71.00
2017-08-30T01:50:57.159Z,70.90
2017-08-30T01:53:24.756Z,70.90
2017-08-30T01:55:52.347Z,71.90
2017-08-30T01:58:19.941Z,71.70
2017-08-30T02:00:47.602Z,71.50
2017-08-30T02:03:15.356Z,72.30
2017-08-30T02:05:42.937Z,72.30
2017-08-30T02:08:10.574Z,71.80
2017-08-30T02:10:38.125Z,71.90
2017-08-30T02:13:05.805Z,71.80
2017-08-30T02:15:33.397Z,71.70
2017-08-30T02:18:01.103Z,71.50
2017-08-30T02:20:28.681Z,71.80
2017-08-30T02:25:30.081Z,73.00
2017-08-30T02:27:57.747Z,73.60
2017-08-30T02:30:25.359Z,72.90
2017-08-30T02:32:52.988Z,72.90
2017-08-30T02:35:20.669Z,72.20
2017-08-30T02:37:48.295Z,72.00
2017-08-30T02:40:15.998Z,71.40
2017-08-30T02:42:43.611Z,71.50
2017-08-30T02:45:11.262Z,71.30
2017-08-30T02:47:38.884Z,71.90
2017-08-30T02:50:06.461Z,71.90
2017-08-30T02:52:34.015Z,71.20
2017-08-30T02:55:01.587Z,71.50
2017-08-30T02:57:29.299Z,72.00
2017-08-30T02:59:56.875Z,71.40
2017-08-30T03:02:24.491Z,71.30
2017-08-30T03:04:52.084Z,70.90
2017-08-30T03:07:20.428Z,72.00
2017-08-30T03:09:48.037Z,71.90
2017-08-30T03:12:15.777Z,72.80
2017-08-30T03:14:43.484Z,74.50
2017-08-30T03:17:11.152Z,73.90
2017-08-30T03:19:38.735Z,74.10
2017-08-30T03:22:06.313Z,73.10
2017-08-30T03:24:33.987Z,73.30
2017-08-30T03:27:01.599Z,72.80
2017-08-30T03:29:29.205Z,73.00
2017-08-30T03:31:56.803Z,72.90
2017-08-30T03:34:24.933Z,73.00
2017-08-30T03:36:52.622Z,72.40
2017-08-30T03:39:20.272Z,72.60
2017-08-30T03:41:48.018Z,72.30
2017-08-30T03:44:15.679Z,72.50
2017-08-30T03:46:43.399Z,72.80
2017-08-30T03:49:11.000Z,72.60
2017-08-30T03:51:38.643Z,72.50
2017-08-30T03:54:06.269Z,72.10
2017-08-30T03:56:33.932Z,72.00
2017-08-30T03:59:01.504Z,72.30
2017-08-30T04:01:29.172Z,72.50
2017-08-30T04:03:56.767Z,72.30
2017-08-30T04:06:24.455Z,72.20
2017-08-30T04:08:52.068Z,72.30
2017-08-30T04:11:19.871Z,72.10
2017-08-30T04:13:47.596Z,73.80
2017-08-30T04:16:15.299Z,74.70
2017-08-30T04:18:43.992Z,74.50
2017-08-30T04:21:11.608Z,74.90
2017-08-30T04:23:39.276Z,74.70
2017-08-30T04:26:06.901Z,75.20
2017-08-30T04:28:34.553Z,75.00
2017-08-30T04:31:02.151Z,73.70
2017-08-30T04:33:31.414Z,74.00
2017-08-30T04:35:59.587Z,74.60
2017-08-30T04:38:27.550Z,74.20
2017-08-30T04:40:55.170Z,74.00
2017-08-30T04:43:22.850Z,74.30
2017-08-30T04:45:50.558Z,73.50
2017-08-30T04:48:18.188Z,73.00
2017-08-30T04:50:45.897Z,72.80
2017-08-30T04:53:13.584Z,72.40
2017-08-30T04:55:41.224Z,72.30
2017-08-30T04:58:08.898Z,72.20
2017-08-30T05:00:36.501Z,72.00
2017-08-30T05:03:04.154Z,71.50
2017-08-30T05:05:31.778Z,71.90
2017-08-30T05:07:59.448Z,71.80
2017-08-30T05:10:27.055Z,71.90
2017-08-30T05:12:54.729Z,72.30
2017-08-30T05:15:22.342Z,71.70
2017-08-30T05:17:50.037Z,71.70
2017-08-30T05:20:17.654Z,71.00
2017-08-30T05:22:45.350Z,72.80
2017-08-30T05:25:13.045Z,71.00
2017-08-30T05:27:40.765Z,70.60
2017-08-30T05:30:08.373Z,72.90
2017-08-30T05:32:35.986Z,71.30
2017-08-30T05:35:03.641Z,71.20
2017-08-30T05:37:31.308Z,72.00
2017-08-30T05:39:58.923Z,71.60
2017-08-30T05:42:26.576Z,70.40
2017-08-30T05:44:54.213Z,71.40
2017-08-30T05:47:22.239Z,71.20
2017-08-30T05:49:49.850Z,72.00
2017-08-30T05:52:17.541Z,73.70
2017-08-30T05:54:45.171Z,71.80
2017-08-30T05:57:12.853Z,71.10
2017-08-30T05:59:40.476Z,71.40
2017-08-30T06:02:08.166Z,71.40
2017-08-30T06:04:35.768Z,71.90
2017-08-30T06:07:03.362Z,72.50
2017-08-30T06:09:31.028Z,72.80
2017-08-30T06:11:58.670Z,73.10
2017-08-30T06:14:26.324Z,74.50
2017-08-30T06:16:53.982Z,73.70
2017-08-30T06:19:21.645Z,73.70
2017-08-30T06:21:49.265Z,74.70
2017-08-30T06:24:17.693Z,73.80
2017-08-30T06:26:45.417Z,73.80
2017-08-30T06:29:13.086Z,73.70
2017-08-30T06:31:40.712Z,74.90
2017-08-30T06:34:08.426Z,74.60
2017-08-30T06:36:36.152Z,74.00
2017-08-30T06:39:03.840Z,73.90
2017-08-30T06:41:32.214Z,73.60
2017-08-30T06:43:59.872Z,73.50
2017-08-30T06:46:27.487Z,74.10
2017-08-30T06:48:55.139Z,73.10
2017-08-30T06:51:22.733Z,74.20
2017-08-30T06:53:50.389Z,73.40
2017-08-30T06:56:18.028Z,72.50
2017-08-30T06:58:45.716Z,72.70
2017-08-30T07:01:13.323Z,73.60
2017-08-30T07:03:41.002Z,72.70
2017-08-30T07:06:08.628Z,72.70
2017-08-30T07:08:36.294Z,71.60
2017-08-30T07:11:03.832Z,70.10
2017-08-30T07:13:31.403Z,68.90
2017-08-30T07:15:59.868Z,67.60
2017-08-30T07:18:27.440Z,63.60
2017-08-30T07:20:54.976Z,64.20
2017-08-30T07:23:22.548Z,63.20
2017-08-30T07:25:50.091Z,62.60
2017-08-30T07:28:17.680Z,63.90
2017-08-30T07:30:45.248Z,66.50
2017-08-30T07:33:12.860Z,65.30
2017-08-30T07:35:40.408Z,64.80
2017-08-30T07:38:07.984Z,69.60
2017-08-30T07:40:35.527Z,70.00
2017-08-30T07:43:03.688Z,69.20
2017-08-30T07:45:32.329Z,68.90
2017-08-30T07:48:00.654Z,65.10
2017-08-30T07:50:29.385Z,65.00
2017-08-30T07:53:00.589Z,60.90
2017-08-30T07:55:28.600Z,59.90
2017-08-30T07:57:56.971Z,56.80
2017-08-30T08:00:26.789Z,53.50
2017-08-30T08:02:59.322Z,51.70
2017-08-30T08:05:27.746Z,51.40
2017-08-30T08:07:56.913Z,50.10
2017-08-30T08:10:29.066Z,50.20
2017-08-30T08:13:02.360Z,49.40
2017-08-30T08:15:31.848Z,49.10
2017-08-30T08:18:04.704Z,48.70
2017-08-30T08:20:34.079Z,49.10
2017-08-30T08:23:04.755Z,48.50
2017-08-30T08:25:34.138Z,48.70
2017-08-30T08:28:03.915Z,48.00
2017-08-30T08:30:33.078Z,47.60
2017-08-30T08:33:01.225Z,47.20
2017-08-30T08:35:29.804Z,47.40
2017-08-30T08:37:59.171Z,46.90
2017-08-30T08:40:26.841Z,46.50
2017-08-30T08:42:55.674Z,47.80
2017-08-30T08:45:23.462Z,46.20
2017-08-30T08:47:51.154Z,45.10
2017-08-30T08:50:18.875Z,46.00
2017-08-30T08:52:46.548Z,44.30
2017-08-30T08:55:14.124Z,45.90
2017-08-30T08:57:41.707Z,45.80
2017-08-30T09:00:09.248Z,46.80
2017-08-30T09:02:36.827Z,45.80
2017-08-30T09:05:04.445Z,47.50
2017-08-30T09:07:32.066Z,44.20
2017-08-30T09:09:59.736Z,46.40
2017-08-30T09:12:27.354Z,45.80
2017-08-30T09:14:55.024Z,44.60
2017-08-30T09:17:22.641Z,45.50
2017-08-30T09:19:50.309Z,44.80
2017-08-30T09:22:17.949Z,44.60
2017-08-30T09:24:45.616Z,44.30
2017-08-30T09:27:13.254Z,43.30
2017-08-30T09:29:40.916Z,43.60
2017-08-30T09:32:08.457Z,42.80
2017-08-30T09:34:36.045Z,43.00
2017-08-30T09:37:03.591Z,42.90
2017-08-30T09:39:31.219Z,44.40
2017-08-30T09:41:58.772Z,42.90
2017-08-30T09:44:26.393Z,42.70
2017-08-30T09:46:54.057Z,42.20
2017-08-30T09:49:21.662Z,43.90
2017-08-30T09:51:49.332Z,47.50
2017-08-30T09:54:16.867Z,43.40
2017-08-30T09:56:44.441Z,43.30
2017-08-30T09:59:12.023Z,41.80
2017-08-30T10:01:39.555Z,41.30
2017-08-30T10:04:07.116Z,40.80
2017-08-30T10:06:35.455Z,40.70
2017-08-30T10:09:03.436Z,40.70
2017-08-30T10:11:31.046Z,40.40
2017-08-30T10:13:58.695Z,40.50
2017-08-30T10:16:26.233Z,40.80
2017-08-30T10:18:54.971Z,40.80
2017-08-30T10:21:22.528Z,40.70
2017-08-30T10:23:50.064Z,42.10
2017-08-30T10:26:17.636Z,41.00
2017-08-30T10:28:45.177Z,40.60
2017-08-30T10:31:12.743Z,41.10
2017-08-30T10:33:40.405Z,43.90
2017-08-30T10:36:08.062Z,41.50
2017-08-30T10:38:35.667Z,40.50
2017-08-30T10:41:03.274Z,40.50
2017-08-30T10:43:30.853Z,40.80
2017-08-30T10:45:58.427Z,40.30
2017-08-30T10:48:26.014Z,40.50
2017-08-30T10:50:53.576Z,40.70
2017-08-30T10:53:21.128Z,38.70
2017-08-30T10:55:48.701Z,40.30
2017-08-30T10:58:17.008Z,40.60
2017-08-30T11:00:44.604Z,40.60
2017-08-30T11:03:12.155Z,40.00
2017-08-30T11:05:39.713Z,40.60
2017-08-30T11:08:07.292Z,38.70
2017-08-30T11:10:34.837Z,38.70
2017-08-30T11:13:02.420Z,39.00
2017-08-30T11:15:29.959Z,40.00
2017-08-30T11:17:57.528Z,40.30
2017-08-30T11:20:25.071Z,41.00
2017-08-30T11:22:52.645Z,41.00
2017-08-30T11:25:20.182Z,41.30
2017-08-30T11:27:47.755Z,41.10
2017-08-30T11:30:15.298Z,41.00
2017-08-30T11:32:42.975Z,41.20
2017-08-30T11:35:10.523Z,41.10
2017-08-30T11:37:38.072Z,41.20
2017-08-30T11:40:05.651Z,42.00
2017-08-30T11:42:33.191Z,41.80
2017-08-30T11:45:00.774Z,40.50
2017-08-30T11:47:28.317Z,41.20
2017-08-30T11:49:55.893Z,40.20
2017-08-30T11:52:23.440Z,39.80
2017-08-30T11:54:51.020Z,40.50
2017-08-30T11:57:18.564Z,39.90
2017-08-30T11:59:46.160Z,39.80
2017-08-30T12:02:13.806Z,40.30
2017-08-30T12:04:41.481Z,40.30
2017-08-30T12:07:09.025Z,40.80
2017-08-30T12:09:37.441Z,42.30
2017-08-30T12:12:05.072Z,42.20
2017-08-30T12:14:32.747Z,39.40
2017-08-30T12:17:00.355Z,40.20
2017-08-30T12:19:28.049Z,39.50
2017-08-30T12:21:55.683Z,39.70
2017-08-30T12:24:23.514Z,39.60
2017-08-30T12:26:51.052Z,38.10
2017-08-30T12:29:18.608Z,38.80
2017-08-30T12:31:46.184Z,39.40
2017-08-30T12:34:13.728Z,41.30
2017-08-30T12:36:47.000Z,39.10
2017-08-30T12:39:20.224Z,38.60
2017-08-30T12:41:47.809Z,38.30
2017-08-30T12:44:15.360Z,40.40
2017-08-30T12:46:42.955Z,38.90
2017-08-30T12:49:10.524Z,38.30
2017-08-30T12:51:38.067Z,38.50
2017-08-30T12:54:05.745Z,37.50
2017-08-30T12:56:33.392Z,38.20
2017-08-30T12:59:00.935Z,38.90
2017-08-30T13:01:28.512Z,38.90
2017-08-30T13:03:56.055Z,38.80
2017-08-30T13:06:23.632Z,40.00
2017-08-30T13:08:51.183Z,39.80
2017-08-30T13:11:18.777Z,39.70
2017-08-30T13:13:46.340Z,42.80
2017-08-30T13:16:13.964Z,44.20
2017-08-30T13:18:43.314Z,42.90
2017-08-30T13:21:10.871Z,38.50
2017-08-30T13:23:38.470Z,38.00
2017-08-30T13:26:06.023Z,37.60
2017-08-30T13:28:33.629Z,40.00
2017-08-30T13:31:01.180Z,41.60
2017-08-30T13:33:28.724Z,38.40
2017-08-30T13:35:56.300Z,38.40
2017-08-30T13:38:23.911Z,39.80
2017-08-30T13:40:51.619Z,39.30
2017-08-30T13:43:19.230Z,39.20
2017-08-30T13:45:46.970Z,39.40
2017-08-30T13:48:14.618Z,41.10
2017-08-30T13:50:42.274Z,41.20
2017-08-30T13:53:09.970Z,44.90
2017-08-30T13:55:37.621Z,45.00
2017-08-30T13:58:05.260Z,45.40
2017-08-30T14:00:32.971Z,45.30
2017-08-30T14:03:00.633Z,47.50
2017-08-30T14:05:28.343Z,47.50
2017-08-30T14:07:56.040Z,46.20
2017-08-30T14:10:24.172Z,47.10
2017-08-30T14:12:51.834Z,45.80
2017-08-30T14:15:19.484Z,47.30
2017-08-30T14:17:47.322Z,46.40
2017-08-30T14:20:14.902Z,48.10
2017-08-30T14:22:42.520Z,38.30
2017-08-30T14:25:10.105Z,41.00
2017-08-30T14:27:37.731Z,41.40
2017-08-30T14:30:05.386Z,47.00
2017-08-30T14:32:33.047Z,47.10
2017-08-30T14:35:00.654Z,46.20
2017-08-30T14:37:29.183Z,38.30
2017-08-30T14:39:56.804Z,38.20
2017-08-30T14:42:24.445Z,37.80
2017-08-30T14:44:52.061Z,44.80
2017-08-30T14:47:19.709Z,45.70
2017-08-30T14:49:47.293Z,48.20
2017-08-30T14:52:14.939Z,48.00
2017-08-30T14:54:42.554Z,48.90
2017-08-30T14:57:10.205Z,50.70
2017-08-30T14:59:37.890Z,49.80
2017-08-30T15:02:05.558Z,48.90
2017-08-30T15:04:33.140Z,49.20
2017-08-30T15:07:00.798Z,49.70
2017-08-30T15:09:28.427Z,49.70
2017-08-30T15:11:57.050Z,51.10
2017-08-30T15:14:24.611Z,52.30
2017-08-30T15:16:52.290Z,51.30
2017-08-30T15:19:19.922Z,51.90
2017-08-30T15:21:47.583Z,51.60
2017-08-30T15:24:16.017Z,52.60
2017-08-30T15:26:43.684Z,52.60
2017-08-30T15:29:11.274Z,52.50
2017-08-30T15:31:38.921Z,52.70
2017-08-30T15:34:06.521Z,51.90
2017-08-30T15:36:34.093Z,52.70
2017-08-30T15:39:01.709Z,52.20
2017-08-30T15:41:29.392Z,51.40
2017-08-30T15:43:56.953Z,52.20
2017-08-30T15:46:24.528Z,52.50
2017-08-30T15:48:52.122Z,52.30
2017-08-30T15:51:19.803Z,52.10
2017-08-30T15:53:47.436Z,52.70
2017-08-30T15:56:15.116Z,52.70
2017-08-30T15:58:42.754Z,52.30
2017-08-30T16:01:10.351Z,54.60
2017-08-30T16:03:37.955Z,54.30
2017-08-30T16:06:05.622Z,54.20
2017-08-30T16:08:33.251Z,54.80
2017-08-30T16:11:01.010Z,54.40
2017-08-30T16:13:28.623Z,53.50
2017-08-30T16:15:56.231Z,54.30
2017-08-30T16:18:23.916Z,54.10
2017-08-30T16:20:51.589Z,50.00
2017-08-30T16:23:19.212Z,52.80
2017-08-30T16:25:46.908Z,53.40
2017-08-30T16:28:14.641Z,54.70
2017-08-30T16:30:42.260Z,55.50
2017-08-30T16:33:09.936Z,55.10
2017-08-30T16:35:37.577Z,55.70
2017-08-30T16:38:05.244Z,56.40
2017-08-30T16:40:32.865Z,56.00
2017-08-30T16:43:00.522Z,56.50
2017-08-30T16:45:28.074Z,58.00
2017-08-30T16:47:55.709Z,51.60
2017-08-30T16:50:23.330Z,56.10
2017-08-30T16:52:50.976Z,56.60
2017-08-30T16:55:18.592Z,57.70
2017-08-30T16:57:46.222Z,58.60
2017-08-30T17:00:13.824Z,57.90
2017-08-30T17:02:41.482Z,59.30
2017-08-30T17:05:09.102Z,59.00
2017-08-30T17:07:36.825Z,55.10
2017-08-30T17:10:04.417Z,56.50
2017-08-30T17:12:32.048Z,58.30
2017-08-30T17:14:59.659Z,58.50
2017-08-30T17:17:27.293Z,58.60
2017-08-30T17:19:54.918Z,58.10
2017-08-30T17:22:22.581Z,59.10
2017-08-30T17:24:50.175Z,59.50
2017-08-30T17:27:17.837Z,60.70
2017-08-30T17:29:45.430Z,61.00
2017-08-30T17:32:13.110Z,61.40
2017-08-30T17:34:40.722Z,63.10
2017-08-30T17:37:08.411Z,63.50
2017-08-30T17:39:36.048Z,62.50
2017-08-30T17:42:03.677Z,62.80
2017-08-30T17:44:31.337Z,62.70
2017-08-30T17:46:59.008Z,63.00
2017-08-30T17:49:26.642Z,63.10
2017-08-30T17:51:54.333Z,62.40
2017-08-30T17:54:21.959Z,61.40
2017-08-30T17:56:49.581Z,62.10
2017-08-30T17:59:17.257Z,62.10
2017-08-30T18:01:44.884Z,62.60
2017-08-30T18:04:12.558Z,63.00
2017-08-30T18:06:40.224Z,64.10
2017-08-30T18:09:07.898Z,66.80
2017-08-30T18:11:35.885Z,65.90
2017-08-30T18:14:03.594Z,66.40
2017-08-30T18:16:31.280Z,66.20
2017-08-30T18:18:58.908Z,69.70
2017-08-30T18:21:26.542Z,70.90
2017-08-30T18:23:54.359Z,71.60
2017-08-30T18:26:22.448Z,72.00
2017-08-30T18:28:50.118Z,71.70
2017-08-30T18:31:17.760Z,71.50
2017-08-30T18:33:45.440Z,71.60
2017-08-30T18:36:13.111Z,71.90
2017-08-30T18:38:40.780Z,71.60
2017-08-30T18:41:09.037Z,72.40
2017-08-30T18:43:36.705Z,73.40
2017-08-30T18:46:04.326Z,74.30
2017-08-30T18:48:32.016Z,74.30
2017-08-30T18:50:59.648Z,74.80
2017-08-30T18:53:27.312Z,74.20
2017-08-30T18:55:54.933Z,73.80
2017-08-30T18:58:22.619Z,73.60
2017-08-30T19:00:50.248Z,74.30
2017-08-30T19:03:17.888Z,73.80
2017-08-30T19:05:45.696Z,73.60
2017-08-30T19:08:13.412Z,74.10
2017-08-30T19:10:41.063Z,74.50
2017-08-30T19:13:08.689Z,74.60
2017-08-30T19:15:36.308Z,74.90
2017-08-30T19:18:04.821Z,74.20
2017-08-30T19:20:33.140Z,75.80
2017-08-30T19:23:01.739Z,74.40
2017-08-30T19:25:29.476Z,73.30
2017-08-30T19:27:57.689Z,73.20
2017-08-30T19:30:25.472Z,70.70
2017-08-30T19:32:55.138Z,69.50
2017-08-30T19:35:22.891Z,68.30
2017-08-30T19:37:50.551Z,67.90
2017-08-30T19:40:18.177Z,67.20
2017-08-30T19:42:45.850Z,67.90
2017-08-30T19:45:13.527Z,68.50
2017-08-30T19:47:41.117Z,71.60
2017-08-30T19:50:09.511Z,77.40
2017-08-30T19:52:37.103Z,77.30
2017-08-30T19:55:04.742Z,79.10
2017-08-30T19:57:32.387Z,80.50
2017-08-30T20:00:00.026Z,80.40
2017-08-30T20:02:27.659Z,80.90
2017-08-30T20:04:55.303Z,83.50
2017-08-30T20:07:22.907Z,85.30
2017-08-30T20:09:50.579Z,86.60
2017-08-30T20:12:18.206Z,87.10
2017-08-30T20:14:45.849Z,87.80
2017-08-30T20:17:13.525Z,88.50
2017-08-30T20:19:41.182Z,89.10
2017-08-30T20:22:08.819Z,89.80
2017-08-30T20:24:36.481Z,89.60
2017-08-30T20:27:04.237Z,89.90
2017-08-30T20:29:31.865Z,90.20
2017-08-30T20:31:59.527Z,90.60
2017-08-30T20:34:27.150Z,90.70
2017-08-30T20:36:54.821Z,91.00
2017-08-30T20:39:22.410Z,91.00
2017-08-30T20:41:50.065Z,90.70
2017-08-30T20:44:17.703Z,90.70
2017-08-30T20:46:45.354Z,91.00
2017-08-30T20:49:13.047Z,91.30
2017-08-30T20:51:40.720Z,91.40
2017-08-30T20:54:08.432Z,91.30
2017-08-30T20:56:36.082Z,91.30
2017-08-30T20:59:03.714Z,91.40
2017-08-30T21:01:31.377Z,91.40
2017-08-30T21:03:59.951Z,91.00
2017-08-30T21:06:27.634Z,90.80
2017-08-30T21:08:55.436Z,90.80
2017-08-30T21:11:23.575Z,90.80
2017-08-30T21:13:51.228Z,90.60
2017-08-30T21:16:18.881Z,90.20
2017-08-30T21:18:46.586Z,90.20
2017-08-30T21:21:14.283Z,90.20
2017-08-30T21:23:41.921Z,89.20
2017-08-30T21:26:09.640Z,89.40
2017-08-30T21:28:38.443Z,89.00
2017-08-30T21:31:06.136Z,89.00
2017-08-30T21:33:33.781Z,89.00
2017-08-30T21:36:01.504Z,89.80
2017-08-30T21:38:29.592Z,89.90
2017-08-30T21:40:57.458Z,89.90
2017-08-30T21:43:25.213Z,89.40
2017-08-30T21:45:52.937Z,89.20
2017-08-30T21:48:20.776Z,89.10
2017-08-30T21:50:48.496Z,89.80
2017-08-30T21:53:16.253Z,90.30
2017-08-30T21:55:43.962Z,90.60
2017-08-30T21:58:11.712Z,90.60
2017-08-30T22:00:39.453Z,90.70
2017-08-30T22:03:07.123Z,90.80
2017-08-30T22:05:34.813Z,91.10
2017-08-30T22:08:02.566Z,90.90
2017-08-30T22:10:30.305Z,90.90
2017-08-30T22:12:58.070Z,90.50
2017-08-30T22:15:25.686Z,90.20
2017-08-30T22:17:53.520Z,90.30
2017-08-30T22:20:21.202Z,90.20
2017-08-30T22:22:48.878Z,90.10
2017-08-30T22:25:16.531Z,89.20
2017-08-30T22:27:44.251Z,88.80
2017-08-30T22:30:11.889Z,89.30
2017-08-30T22:32:39.625Z,90.10
2017-08-30T22:35:07.463Z,90.10
2017-08-30T22:37:35.201Z,90.00
2017-08-30T22:40:02.883Z,89.70
2017-08-30T22:42:30.610Z,89.20
2017-08-30T22:44:58.367Z,88.40
2017-08-30T22:47:26.208Z,89.20
2017-08-30T22:49:53.891Z,88.70
2017-08-30T22:52:21.594Z,86.20
2017-08-30T22:54:49.206Z,87.30
2017-08-30T22:57:16.884Z,89.10
2017-08-30T22:59:44.531Z,89.60
2017-08-30T23:02:12.190Z,90.10
2017-08-30T23:04:39.812Z,90.00
2017-08-30T23:07:07.441Z,90.20
2017-08-30T23:12:09.029Z,90.10
2017-08-30T23:14:36.616Z,90.20
2017-08-30T23:17:04.245Z,89.30
2017-08-30T23:19:31.834Z,90.10
2017-08-30T23:21:59.492Z,90.00
2017-08-30T23:24:27.097Z,90.00
2017-08-30T23:26:54.736Z,90.40
2017-08-30T23:29:22.312Z,90.80
2017-08-30T23:31:49.939Z,90.50
2017-08-30T23:34:17.678Z,90.70
2017-08-30T23:36:45.302Z,90.60
2017-08-30T23:39:12.990Z,90.60
2017-08-30T23:41:40.621Z,90.40
2017-08-30T23:44:08.559Z,90.50
2017-08-30T23:46:36.150Z,90.60
2017-08-30T23:49:03.809Z,90.40
2017-08-30T23:51:31.444Z,90.70
2017-08-30T23:54:00.716Z,90.60
2017-08-30T23:56:28.329Z,90.60
2017-08-30T23:58:56.021Z,90.70
